createdAt,value
2023-03-25T00:01:45.676Z,15.35
2023-03-25T00:04:52.965Z,15.28
2023-03-25T00:07:55.674Z,15.24
2023-03-25T00:11:00.374Z,15.25
2023-03-25T00:14:02.894Z,15.19
2023-03-25T00:17:06.842Z,15.18
2023-03-25T00:20:10.395Z,15.14
2023-03-25T00:23:13.495Z,15.11
2023-03-25T00:26:16.423Z,15.17
2023-03-25T00:29:19.353Z,15.07
2023-03-25T00:32:22.053Z,15.07
2023-03-25T00:35:26.114Z,15.08
2023-03-25T00:38:34.287Z,15.06
2023-03-25T00:41:37.332Z,15.10
2023-03-25T00:44:40.770Z,15.12
2023-03-25T00:47:43.916Z,15.06
2023-03-25T00:50:48.756Z,15.06
2023-03-25T00:53:53.461Z,15.03
2023-03-25T00:56:56.369Z,14.95
2023-03-25T00:59:59.415Z,15.09
2023-03-25T01:03:04.280Z,15.14
2023-03-25T01:06:15.169Z,15.08
2023-03-25T01:09:19.634Z,15.05
2023-03-25T01:12:22.484Z,15.17
2023-03-25T01:15:26.320Z,15.09
2023-03-25T01:18:29.269Z,15.19
2023-03-25T01:21:35.174Z,15.26
2023-03-25T01:24:38.177Z,15.34
2023-03-25T01:27:40.863Z,15.36
2023-03-25T01:30:43.633Z,15.34
2023-03-25T01:33:46.330Z,15.47
2023-03-25T01:36:49.279Z,15.38
2023-03-25T01:39:51.836Z,15.35
2023-03-25T01:42:54.835Z,15.33
2023-03-25T01:45:57.645Z,15.19
2023-03-25T01:49:03.486Z,15.36
2023-03-25T01:52:17.283Z,15.11
2023-03-25T01:55:20.505Z,15.24
2023-03-25T01:58:24.250Z,15.10
2023-03-25T02:01:28.001Z,15.15
2023-03-25T02:04:39.263Z,15.13
2023-03-25T02:07:46.857Z,15.10
2023-03-25T02:10:50.039Z,15.06
2023-03-25T02:13:52.832Z,14.93
2023-03-25T02:16:55.339Z,14.76
2023-03-25T02:20:08.157Z,14.70
2023-03-25T02:23:28.401Z,14.68
2023-03-25T02:26:56.472Z,14.50
2023-03-25T02:30:11.664Z,14.35
2023-03-25T02:33:23.653Z,14.20
2023-03-25T02:36:44.741Z,14.05
2023-03-25T02:39:48.973Z,13.94
2023-03-25T02:43:03.590Z,13.86
2023-03-25T02:46:09.965Z,13.69
2023-03-25T02:49:17.700Z,13.69
2023-03-25T02:52:25.025Z,13.57
2023-03-25T02:55:30.595Z,13.42
2023-03-25T02:58:34.166Z,13.49
2023-03-25T03:01:36.813Z,13.41
2023-03-25T03:04:56.807Z,13.47
2023-03-25T03:08:48.421Z,13.32
2023-03-25T03:12:19.568Z,13.33
2023-03-25T03:15:40.692Z,13.25
2023-03-25T03:18:44.874Z,13.17
2023-03-25T03:21:56.008Z,13.08
2023-03-25T03:25:06.898Z,13.15
2023-03-25T03:28:27.735Z,13.07
2023-03-25T03:32:06.676Z,13.24
2023-03-25T03:35:17.130Z,13.18
2023-03-25T03:38:21.487Z,13.07
2023-03-25T03:41:27.157Z,13.05
2023-03-25T03:44:33.314Z,13.07
2023-03-25T03:47:40.939Z,13.02
2023-03-25T03:50:50.748Z,13.00
2023-03-25T03:54:00.647Z,12.79
2023-03-25T03:57:12.350Z,12.84
2023-03-25T04:00:25.893Z,12.69
2023-03-25T04:03:38.879Z,12.56
2023-03-25T04:06:50.732Z,12.51
2023-03-25T04:10:14.793Z,12.45
2023-03-25T04:13:17.741Z,12.31
2023-03-25T04:16:20.650Z,12.18
2023-03-25T04:19:23.843Z,12.28
2023-03-25T04:22:26.751Z,12.28
2023-03-25T04:25:31.483Z,12.33
2023-03-25T04:28:36.716Z,12.37
2023-03-25T04:31:46.177Z,12.23
2023-03-25T04:34:49.468Z,12.22
2023-03-25T04:37:54.414Z,12.14
2023-03-25T04:40:58.301Z,12.27
2023-03-25T04:44:00.910Z,12.14
2023-03-25T04:47:03.806Z,12.06
2023-03-25T04:50:07.029Z,12.18
2023-03-25T04:53:10.002Z,12.14
2023-03-25T04:56:16.443Z,12.04
2023-03-25T04:59:21.288Z,12.14
2023-03-25T05:02:24.133Z,12.16
2023-03-25T05:05:26.940Z,12.16
2023-03-25T05:08:31.163Z,12.10
2023-03-25T05:11:37.074Z,12.16
2023-03-25T05:14:39.632Z,12.18
2023-03-25T05:17:44.158Z,12.13
2023-03-25T05:20:50.949Z,12.02
2023-03-25T05:23:53.968Z,12.17
2023-03-25T05:26:56.466Z,12.24
2023-03-25T05:29:59.468Z,12.13
2023-03-25T05:33:01.975Z,12.11
2023-03-25T05:36:06.748Z,12.23
2023-03-25T05:39:10.895Z,12.21
2023-03-25T05:42:14.675Z,12.03
2023-03-25T05:45:17.303Z,12.10
2023-03-25T05:48:20.247Z,12.05
2023-03-25T05:51:23.195Z,12.08
2023-03-25T05:54:26.084Z,12.08
2023-03-25T05:57:28.628Z,12.14
2023-03-25T06:00:32.436Z,12.17
2023-03-25T06:03:36.192Z,12.01
2023-03-25T06:06:39.570Z,12.08
2023-03-25T06:09:46.675Z,12.14
2023-03-25T06:12:50.020Z,12.01
2023-03-25T06:15:57.376Z,12.01
2023-03-25T06:19:00.703Z,11.96
2023-03-25T06:22:03.864Z,12.01
2023-03-25T06:25:07.403Z,11.90
2023-03-25T06:28:10.383Z,12.05
2023-03-25T06:31:26.601Z,12.02
2023-03-25T06:34:32.770Z,11.99
2023-03-25T06:37:35.745Z,11.85
2023-03-25T06:40:39.598Z,11.88
2023-03-25T06:43:50.229Z,12.00
2023-03-25T06:46:54.959Z,12.05
2023-03-25T06:49:57.881Z,12.06
2023-03-25T06:53:00.904Z,12.10
2023-03-25T06:56:03.587Z,12.09
2023-03-25T06:59:06.435Z,12.07
2023-03-25T07:02:12.848Z,12.11
2023-03-25T07:05:16.018Z,12.06
2023-03-25T07:08:18.808Z,12.05
2023-03-25T07:11:26.855Z,12.21
2023-03-25T07:14:29.432Z,12.17
2023-03-25T07:17:32.429Z,12.21
2023-03-25T07:20:35.125Z,12.34
2023-03-25T07:23:37.971Z,12.37
2023-03-25T07:26:40.637Z,12.38
2023-03-25T07:29:44.544Z,12.51
2023-03-25T07:32:47.154Z,12.60
2023-03-25T07:35:50.576Z,12.55
2023-03-25T07:38:55.806Z,12.76
2023-03-25T07:42:00.277Z,12.64
2023-03-25T07:45:04.709Z,12.66
2023-03-25T07:48:13.622Z,12.64
2023-03-25T07:51:16.249Z,12.80
2023-03-25T07:54:22.286Z,12.77
2023-03-25T07:57:24.742Z,12.91
2023-03-25T08:00:28.110Z,12.89
2023-03-25T08:03:32.143Z,13.04
2023-03-25T08:06:34.659Z,13.21
2023-03-25T08:09:37.470Z,13.31
2023-03-25T08:12:41.507Z,13.49
2023-03-25T08:15:44.306Z,13.70
2023-03-25T08:18:46.967Z,13.85
2023-03-25T08:21:49.856Z,14.15
2023-03-25T08:24:52.405Z,14.36
2023-03-25T08:27:55.691Z,14.43
2023-03-25T08:30:59.099Z,14.52
2023-03-25T08:34:02.313Z,14.74
2023-03-25T08:37:05.501Z,14.86
2023-03-25T08:40:11.820Z,15.03
2023-03-25T08:43:14.462Z,15.19
2023-03-25T08:46:17.293Z,15.25
2023-03-25T08:49:19.985Z,15.43
2023-03-25T08:52:23.115Z,15.47
2023-03-25T08:55:25.984Z,15.52
2023-03-25T08:58:28.854Z,15.75
2023-03-25T09:01:31.399Z,15.56
2023-03-25T09:04:34.246Z,15.83
2023-03-25T09:07:38.075Z,16.08
2023-03-25T09:10:41.024Z,16.32
2023-03-25T09:13:46.124Z,16.50
2023-03-25T09:16:49.026Z,16.68
2023-03-25T09:19:52.909Z,16.72
2023-03-25T09:22:57.364Z,16.84
2023-03-25T09:26:02.503Z,16.90
2023-03-25T09:29:05.452Z,16.87
2023-03-25T09:32:07.947Z,17.00
2023-03-25T09:35:11.022Z,16.89
2023-03-25T09:38:13.616Z,16.88
2023-03-25T09:41:23.413Z,16.94
2023-03-25T09:44:29.606Z,17.04
2023-03-25T09:47:34.293Z,17.22
2023-03-25T09:50:37.059Z,17.02
2023-03-25T09:53:49.248Z,17.25
2023-03-25T09:56:53.499Z,17.28
2023-03-25T09:59:58.024Z,17.62
2023-03-25T10:03:03.497Z,17.60
2023-03-25T10:06:19.800Z,17.50
2023-03-25T10:09:53.574Z,17.62
2023-03-25T10:13:02.556Z,17.63
2023-03-25T10:16:08.080Z,17.43
2023-03-25T10:19:29.384Z,17.65
2023-03-25T10:22:52.154Z,17.85
2023-03-25T10:26:05.923Z,18.04
2023-03-25T10:29:13.617Z,18.17
2023-03-25T10:32:18.379Z,18.33
2023-03-25T10:35:25.214Z,18.50
2023-03-25T10:38:30.327Z,18.21
2023-03-25T10:41:39.211Z,17.83
2023-03-25T10:44:43.564Z,17.91
2023-03-25T10:47:46.899Z,17.97
2023-03-25T10:50:50.501Z,17.58
2023-03-25T10:53:53.388Z,17.79
2023-03-25T10:56:59.096Z,17.65
2023-03-25T11:00:16.668Z,17.38
2023-03-25T11:03:31.724Z,17.19
2023-03-25T11:06:39.863Z,17.09
2023-03-25T11:09:43.238Z,17.14
2023-03-25T11:12:47.696Z,17.18
2023-03-25T11:15:53.266Z,17.11
2023-03-25T11:18:56.588Z,17.22
2023-03-25T11:22:02.971Z,17.30
2023-03-25T11:25:40.005Z,17.09
2023-03-25T11:28:46.414Z,17.18
2023-03-25T11:31:58.924Z,17.21
2023-03-25T11:35:07.247Z,17.20
2023-03-25T11:38:20.835Z,17.10
2023-03-25T11:41:27.927Z,17.09
2023-03-25T11:44:32.841Z,16.92
2023-03-25T11:47:38.601Z,16.69
2023-03-25T11:50:46.225Z,16.82
2023-03-25T11:54:00.515Z,16.68
2023-03-25T11:57:12.779Z,16.85
2023-03-25T12:00:24.949Z,16.89
2023-03-25T12:03:29.315Z,16.75
2023-03-25T12:06:31.934Z,16.43
2023-03-25T12:09:35.486Z,16.67
2023-03-25T12:12:46.595Z,16.35
2023-03-25T12:16:21.814Z,16.13
2023-03-25T12:19:50.296Z,16.11
2023-03-25T12:23:19.917Z,16.15
2023-03-25T12:27:07.483Z,16.13
2023-03-25T12:30:10.784Z,16.33
2023-03-25T12:33:14.941Z,16.52
2023-03-25T12:36:28.630Z,16.60
2023-03-25T12:39:46.124Z,16.41
2023-03-25T12:42:55.832Z,16.50
2023-03-25T12:46:04.232Z,16.40
2023-03-25T12:49:42.307Z,16.25
2023-03-25T12:53:13.551Z,16.31
2023-03-25T12:56:47.922Z,16.25
2023-03-25T13:00:15.453Z,16.37
2023-03-25T13:03:34.252Z,16.51
2023-03-25T13:06:44.005Z,16.48
2023-03-25T13:10:08.770Z,16.59
2023-03-25T13:13:20.318Z,16.64
2023-03-25T13:16:25.978Z,16.59
2023-03-25T13:19:32.491Z,16.65
2023-03-25T13:22:40.837Z,16.59
2023-03-25T13:25:53.087Z,16.41
2023-03-25T13:29:22.161Z,16.58
2023-03-25T13:32:39.038Z,16.46
2023-03-25T13:36:07.268Z,16.55
2023-03-25T13:39:18.119Z,16.51
2023-03-25T13:42:26.736Z,16.24
2023-03-25T13:45:32.993Z,16.44
2023-03-25T13:48:58.992Z,16.27
2023-03-25T13:52:01.925Z,16.32
2023-03-25T13:55:14.304Z,16.30
2023-03-25T13:58:43.302Z,16.25
2023-03-25T14:02:04.706Z,16.18
2023-03-25T14:05:26.400Z,15.91
2023-03-25T14:08:48.807Z,16.23
2023-03-25T14:11:59.489Z,16.19
2023-03-25T14:15:14.835Z,16.17
2023-03-25T14:18:18.882Z,16.28
2023-03-25T14:21:22.293Z,16.36
2023-03-25T14:24:32.181Z,16.41
2023-03-25T14:27:35.114Z,16.28
2023-03-25T14:30:38.385Z,16.30
2023-03-25T14:33:59.978Z,15.96
2023-03-25T14:37:08.897Z,15.78
2023-03-25T14:40:47.938Z,15.89
2023-03-25T14:44:18.738Z,15.73
2023-03-25T14:47:37.296Z,15.79
2023-03-25T14:50:40.996Z,15.81
2023-03-25T14:53:51.486Z,15.56
2023-03-25T14:57:21.860Z,15.82
2023-03-25T15:00:29.767Z,15.71
2023-03-25T15:03:43.976Z,15.67
2023-03-25T15:06:49.119Z,15.67
2023-03-25T15:09:53.980Z,15.53
2023-03-25T15:13:07.513Z,15.62
2023-03-25T15:16:36.539Z,15.71
2023-03-25T15:20:09.206Z,15.59
2023-03-25T15:23:19.698Z,15.50
2023-03-25T15:26:30.068Z,15.55
2023-03-25T15:29:58.288Z,15.25
2023-03-25T15:33:13.665Z,15.36
2023-03-25T15:36:31.801Z,15.27
2023-03-25T15:39:53.113Z,15.28
2023-03-25T15:43:17.519Z,15.31
2023-03-25T15:46:29.195Z,15.05
2023-03-25T15:50:08.711Z,15.13
2023-03-25T15:54:00.127Z,15.32
2023-03-25T15:57:33.875Z,15.38
2023-03-25T16:00:41.312Z,15.37
2023-03-25T16:03:58.684Z,15.28
2023-03-25T16:07:03.932Z,15.16
2023-03-25T16:10:20.834Z,15.21
2023-03-25T16:13:24.118Z,15.24
2023-03-25T16:16:28.653Z,15.15
2023-03-25T16:19:47.699Z,15.20
2023-03-25T16:22:54.510Z,15.14
2023-03-25T16:25:57.043Z,14.82
2023-03-25T16:29:07.814Z,14.89
2023-03-25T16:32:19.202Z,14.83
2023-03-25T16:35:26.726Z,14.62
2023-03-25T16:38:31.098Z,14.62
2023-03-25T16:41:35.963Z,14.52
2023-03-25T16:44:38.613Z,14.46
2023-03-25T16:47:41.767Z,14.57
2023-03-25T16:50:45.064Z,14.40
2023-03-25T16:53:51.313Z,14.39
2023-03-25T16:56:54.813Z,14.29
2023-03-25T17:00:06.060Z,14.26
2023-03-25T17:03:15.278Z,14.27
2023-03-25T17:06:28.528Z,14.16
2023-03-25T17:09:37.704Z,14.08
2023-03-25T17:12:42.971Z,13.97
2023-03-25T17:15:50.313Z,14.10
2023-03-25T17:18:54.779Z,13.96
2023-03-25T17:22:26.157Z,13.86
2023-03-25T17:25:36.250Z,13.81
2023-03-25T17:28:58.182Z,13.71
2023-03-25T17:32:01.736Z,13.65
2023-03-25T17:35:08.594Z,13.49
2023-03-25T17:38:17.052Z,13.40
2023-03-25T17:41:20.711Z,13.29
2023-03-25T17:44:32.248Z,13.19
2023-03-25T17:47:35.268Z,13.10
2023-03-25T17:50:38.333Z,12.97
2023-03-25T17:53:41.474Z,12.81
2023-03-25T17:56:44.722Z,12.74
2023-03-25T17:59:47.582Z,12.62
2023-03-25T18:02:50.840Z,12.50
2023-03-25T18:05:54.313Z,12.36
2023-03-25T18:08:57.821Z,12.30
2023-03-25T18:12:01.174Z,12.13
2023-03-25T18:15:04.259Z,12.02
2023-03-25T18:18:08.564Z,11.89
2023-03-25T18:21:16.995Z,11.80
2023-03-25T18:24:20.527Z,11.70
2023-03-25T18:27:33.276Z,11.56
2023-03-25T18:30:55.183Z,11.49
2023-03-25T18:33:57.974Z,11.31
2023-03-25T18:37:01.195Z,11.19
2023-03-25T18:40:24.486Z,11.14
2023-03-25T18:43:27.352Z,11.03
2023-03-25T18:46:30.084Z,10.87
2023-03-25T18:49:33.177Z,10.82
2023-03-25T18:52:38.321Z,10.73
2023-03-25T18:55:42.217Z,10.72
2023-03-25T18:58:45.047Z,10.69
2023-03-25T19:01:48.259Z,10.55
2023-03-25T19:08:06.155Z,10.41
2023-03-25T19:11:19.935Z,10.40
2023-03-25T19:14:24.853Z,10.29
2023-03-25T19:17:27.730Z,10.21
2023-03-25T19:20:33.977Z,10.08
2023-03-25T19:23:41.747Z,10.15
2023-03-25T19:26:45.934Z,9.94
2023-03-25T19:29:50.148Z,10.20
2023-03-25T19:32:54.221Z,10.36
2023-03-25T19:35:59.733Z,10.42
2023-03-25T19:39:06.104Z,10.53
2023-03-25T19:42:09.949Z,10.59
2023-03-25T19:45:13.806Z,10.76
2023-03-25T19:48:16.756Z,10.80
2023-03-25T19:51:20.063Z,10.99
2023-03-25T19:54:28.095Z,11.05
2023-03-25T19:57:32.212Z,11.09
2023-03-25T20:00:35.226Z,11.27
2023-03-25T20:03:38.724Z,11.29
2023-03-25T20:06:41.920Z,11.44
2023-03-25T20:09:45.657Z,11.47
2023-03-25T20:12:49.517Z,11.57
2023-03-25T20:15:53.361Z,11.61
2023-03-25T20:18:57.047Z,11.54
2023-03-25T20:22:00.550Z,11.58
2023-03-25T20:25:04.167Z,11.61
2023-03-25T20:28:07.375Z,11.58
2023-03-25T20:31:36.769Z,11.55
2023-03-25T20:34:40.167Z,11.50
2023-03-25T20:37:44.505Z,11.54
2023-03-25T20:40:48.237Z,11.36
2023-03-25T20:43:51.388Z,11.41
2023-03-25T20:46:55.634Z,11.28
2023-03-25T20:49:58.720Z,11.22
2023-03-25T20:53:04.273Z,11.36
2023-03-25T20:56:06.992Z,11.37
2023-03-25T20:59:12.634Z,11.30
2023-03-25T21:02:17.018Z,11.15
2023-03-25T21:05:21.192Z,11.14
2023-03-25T21:08:26.185Z,11.06
2023-03-25T21:11:29.114Z,11.24
2023-03-25T21:14:31.700Z,11.14
2023-03-25T21:17:34.934Z,11.00
2023-03-25T21:20:39.515Z,11.05
2023-03-25T21:23:44.909Z,11.02
2023-03-25T21:26:49.307Z,10.96
2023-03-25T21:29:52.484Z,11.06
2023-03-25T21:32:55.458Z,10.98
2023-03-25T21:35:58.354Z,10.94
2023-03-25T21:39:04.264Z,10.90
2023-03-25T21:42:10.116Z,10.87
2023-03-25T21:45:16.467Z,10.89
2023-03-25T21:48:21.537Z,10.80
2023-03-25T21:51:26.592Z,10.91
2023-03-25T21:54:30.682Z,10.80
2023-03-25T21:57:39.029Z,10.80
2023-03-25T22:00:42.956Z,10.87
2023-03-25T22:03:46.499Z,10.89
2023-03-25T22:06:49.319Z,10.85
2023-03-25T22:09:52.160Z,10.75
2023-03-25T22:12:54.700Z,10.75
2023-03-25T22:15:57.682Z,10.78
2023-03-25T22:19:00.641Z,10.71
2023-03-25T22:22:03.907Z,10.69
2023-03-25T22:25:07.858Z,10.67
2023-03-25T22:28:12.853Z,10.68
2023-03-25T22:31:19.840Z,10.58
2023-03-25T22:34:22.921Z,10.53
2023-03-25T22:37:25.425Z,10.59
2023-03-25T22:40:28.854Z,10.70
2023-03-25T22:43:32.012Z,10.52
2023-03-25T22:46:35.011Z,10.45
2023-03-25T22:49:40.342Z,10.42
2023-03-25T22:52:43.200Z,10.53
2023-03-25T22:55:53.367Z,10.35
2023-03-25T22:58:56.608Z,10.45
2023-03-25T23:01:59.272Z,10.32
2023-03-25T23:05:02.198Z,10.26
2023-03-25T23:08:05.989Z,10.19
2023-03-25T23:11:11.680Z,10.19
2023-03-25T23:14:14.218Z,10.13
2023-03-25T23:17:17.292Z,10.17
2023-03-25T23:20:20.561Z,10.00
2023-03-25T23:23:24.480Z,9.97
2023-03-25T23:26:29.958Z,9.86
2023-03-25T23:29:36.068Z,10.01
2023-03-25T23:32:39.826Z,10.18
2023-03-25T23:35:44.600Z,9.89
2023-03-25T23:38:48.145Z,10.07
2023-03-25T23:41:51.226Z,9.99
2023-03-25T23:44:54.752Z,9.82
2023-03-25T23:47:57.685Z,9.88
2023-03-25T23:51:00.204Z,9.89
2023-03-25T23:54:04.575Z,9.77
2023-03-25T23:57:07.192Z,9.83
